Terminal Aerodrome Forecast
Issued by NWS Wilmington, OH

Current Version | Previous Version | Graphics & Text | Print | Product List | Glossary On
Versions: 1 2 3 4 5 6 7 8 9 10 11 12 13 14 15 16
047
FTUS41 KILN 171137
TAFDAY
TAF
KDAY 171137Z 1712/1812 20007KT P6SM SCT150 OVC250
     FM171700 20007KT P6SM VCSH BKN050 OVC100
      TEMPO 1718/1720 5SM -RA BKN030 OVC050
     FM172300 20006KT P6SM SCT015 OVC025
     FM180300 20006KT P6SM BKN014 OVC025
     FM180900 21007KT P6SM BKN008 OVC012=

USA.gov is the U.S. government's official web portal to all federal, state and local government web resources and services.